createdAt,value
2023-02-13T00:01:18.454Z,99.90
2023-02-13T00:06:23.655Z,99.90
2023-02-13T00:11:27.330Z,99.90
2023-02-13T00:16:31.076Z,99.90
2023-02-13T00:21:36.215Z,99.90
2023-02-13T00:26:40.806Z,99.90
2023-02-13T00:31:44.555Z,99.90
2023-02-13T00:36:49.653Z,99.90
2023-02-13T00:41:53.388Z,99.90
2023-02-13T00:46:57.128Z,99.90
2023-02-13T00:52:02.258Z,99.90
2023-02-13T00:57:06.206Z,99.90
2023-02-13T01:02:09.957Z,99.90
2023-02-13T01:07:16.455Z,99.90
2023-02-13T01:12:21.049Z,99.90
2023-02-13T01:17:24.779Z,99.90
2023-02-13T01:22:32.759Z,99.90
2023-02-13T01:27:38.144Z,99.90
2023-02-13T01:32:42.565Z,99.90
2023-02-13T01:37:47.749Z,99.90
2023-02-13T01:42:51.442Z,99.90
2023-02-13T01:47:58.130Z,99.90
2023-02-13T01:53:10.160Z,99.90
2023-02-13T01:58:18.546Z,99.90
2023-02-13T02:03:27.383Z,99.90
2023-02-13T02:08:36.523Z,99.90
2023-02-13T02:13:40.552Z,99.90
2023-02-13T02:18:48.100Z,99.90
2023-02-13T02:24:21.481Z,99.90
2023-02-13T02:29:51.738Z,99.90
2023-02-13T02:35:10.079Z,99.90
2023-02-13T02:40:26.452Z,99.90
2023-02-13T02:45:40.926Z,99.90
2023-02-13T02:50:55.045Z,99.90
2023-02-13T02:56:15.239Z,99.90
2023-02-13T03:01:41.698Z,99.90
2023-02-13T03:06:50.797Z,99.90
2023-02-13T03:12:14.448Z,99.90
2023-02-13T03:17:38.363Z,99.90
2023-02-13T03:22:52.832Z,99.90
2023-02-13T03:28:20.109Z,99.90
2023-02-13T03:33:45.906Z,99.90
2023-02-13T03:38:58.211Z,99.90
2023-02-13T03:44:11.951Z,99.90
2023-02-13T03:49:39.290Z,99.90
2023-02-13T03:55:06.290Z,99.90
2023-02-13T04:00:13.558Z,99.90
2023-02-13T04:05:21.185Z,99.90
2023-02-13T04:10:29.081Z,99.90
2023-02-13T04:15:38.264Z,99.90
2023-02-13T04:20:42.243Z,99.90
2023-02-13T04:25:51.178Z,99.90
2023-02-13T04:30:55.021Z,99.90
2023-02-13T04:35:58.838Z,99.90
2023-02-13T04:41:03.942Z,99.90
2023-02-13T04:46:07.645Z,99.90
2023-02-13T04:51:11.435Z,99.90
2023-02-13T04:56:17.619Z,99.90
2023-02-13T05:01:22.889Z,99.90
2023-02-13T05:06:26.673Z,99.90
2023-02-13T05:11:31.721Z,99.90
2023-02-13T05:16:35.431Z,99.90
2023-02-13T05:21:56.412Z,99.90
2023-02-13T05:27:01.461Z,99.90
2023-02-13T05:32:05.353Z,99.90
2023-02-13T05:37:09.098Z,99.90
2023-02-13T05:42:14.357Z,99.90
2023-02-13T05:47:18.122Z,99.90
2023-02-13T05:52:21.787Z,99.90
2023-02-13T05:57:26.798Z,99.90
2023-02-13T06:02:30.607Z,99.90
2023-02-13T06:07:34.278Z,99.90
2023-02-13T06:12:39.356Z,99.90
2023-02-13T06:17:43.002Z,99.90
2023-02-13T06:22:49.759Z,99.90
2023-02-13T06:27:54.869Z,99.90
2023-02-13T06:32:58.848Z,99.90
2023-02-13T06:38:02.710Z,99.90
2023-02-13T06:43:07.839Z,99.90
2023-02-13T06:48:11.554Z,99.90
2023-02-13T06:53:15.374Z,99.90
2023-02-13T06:58:20.443Z,99.90
2023-02-13T07:03:24.204Z,99.90
2023-02-13T07:08:27.897Z,99.90
2023-02-13T07:13:32.959Z,99.90
2023-02-13T07:18:38.486Z,99.90
2023-02-13T07:23:42.347Z,99.90
2023-02-13T07:28:47.503Z,99.90
2023-02-13T07:33:51.399Z,99.90
2023-02-13T07:38:55.324Z,99.90
2023-02-13T07:44:00.382Z,99.90
2023-02-13T07:49:04.273Z,99.90
2023-02-13T07:54:08.045Z,99.90
2023-02-13T07:59:13.579Z,99.90
2023-02-13T08:04:17.648Z,99.90
2023-02-13T08:09:40.931Z,99.90
2023-02-13T08:14:46.203Z,99.90
2023-02-13T08:19:50.758Z,99.90
2023-02-13T08:24:54.593Z,99.90
2023-02-13T08:30:00.109Z,99.90
2023-02-13T08:35:03.776Z,99.90
2023-02-13T08:40:10.531Z,99.90
2023-02-13T08:45:15.944Z,99.90
2023-02-13T08:50:19.665Z,99.90
2023-02-13T08:55:23.317Z,99.90
2023-02-13T09:00:28.374Z,99.90
2023-02-13T09:05:32.783Z,99.90
2023-02-13T09:10:36.652Z,99.90
2023-02-13T09:15:42.470Z,99.90
2023-02-13T09:20:46.280Z,99.90
2023-02-13T09:25:49.944Z,99.90
2023-02-13T09:30:55.214Z,99.90
2023-02-13T09:35:59.263Z,99.90
2023-02-13T09:41:08.277Z,99.90
2023-02-13T09:46:17.702Z,93.70
2023-02-13T09:51:23.735Z,82.80
2023-02-13T09:56:41.869Z,81.30
2023-02-13T10:01:51.749Z,63.20
2023-02-13T10:07:11.104Z,69.70
2023-02-13T10:12:23.924Z,64.40
2023-02-13T10:17:33.928Z,60.30
2023-02-13T10:22:43.435Z,54.60
2023-02-13T10:27:50.523Z,51.10
2023-02-13T10:33:22.916Z,52.10
2023-02-13T10:38:28.571Z,52.00
2023-02-13T10:43:39.867Z,53.20
2023-02-13T10:49:07.567Z,54.30
2023-02-13T10:54:35.332Z,59.10
2023-02-13T10:59:59.554Z,56.80
2023-02-13T11:05:16.514Z,58.60
2023-02-13T11:10:22.131Z,62.80
2023-02-13T11:15:28.712Z,67.50
2023-02-13T11:20:36.509Z,75.10
2023-02-13T11:25:40.426Z,79.20
2023-02-13T11:30:44.187Z,82.40
2023-02-13T11:35:49.818Z,85.50
2023-02-13T11:41:09.126Z,86.00
2023-02-13T11:46:20.856Z,89.80
2023-02-13T11:51:37.581Z,91.10
2023-02-13T11:57:04.126Z,92.70
2023-02-13T12:02:18.775Z,91.60
2023-02-13T12:07:26.633Z,93.10
2023-02-13T12:12:42.120Z,94.80
2023-02-13T12:17:47.876Z,94.60
2023-02-13T12:23:03.711Z,94.30
2023-02-13T12:28:15.565Z,96.40
2023-02-13T12:33:32.860Z,87.00
2023-02-13T12:38:48.850Z,81.70
2023-02-13T12:44:25.113Z,68.50
2023-02-13T12:50:03.391Z,59.70
2023-02-13T12:55:30.036Z,54.90
2023-02-13T13:00:44.903Z,53.70
2023-02-13T13:06:28.367Z,54.20
2023-02-13T13:12:00.317Z,50.50
2023-02-13T13:17:12.748Z,50.80
2023-02-13T13:22:22.593Z,50.80
2023-02-13T13:27:30.659Z,51.90
2023-02-13T13:32:35.606Z,52.90
2023-02-13T13:37:43.938Z,56.00
2023-02-13T13:42:53.208Z,55.70
2023-02-13T13:48:32.702Z,57.00
2023-02-13T13:53:38.378Z,57.90
2023-02-13T13:58:49.542Z,60.90
2023-02-13T14:03:55.399Z,62.10
2023-02-13T14:09:03.112Z,64.10
2023-02-13T14:14:42.399Z,66.70
2023-02-13T14:19:52.500Z,68.60
2023-02-13T14:24:58.458Z,69.20
2023-02-13T14:30:03.144Z,70.10
2023-02-13T14:35:19.572Z,70.90
2023-02-13T14:40:54.554Z,72.40
2023-02-13T14:46:03.333Z,72.50
2023-02-13T14:51:14.145Z,73.80
2023-02-13T14:56:22.688Z,73.40
2023-02-13T15:01:32.157Z,73.90
2023-02-13T15:06:40.451Z,75.20
2023-02-13T15:11:45.565Z,78.60
2023-02-13T15:16:53.556Z,78.50
2023-02-13T15:22:04.077Z,79.60
2023-02-13T15:27:08.975Z,80.60
2023-02-13T15:32:27.226Z,82.70
2023-02-13T15:37:32.486Z,87.50
2023-02-13T15:42:36.454Z,90.40
2023-02-13T15:47:41.722Z,87.30
2023-02-13T15:52:48.347Z,85.00
2023-02-13T15:57:54.770Z,88.00
2023-02-13T16:03:00.591Z,88.50
2023-02-13T16:08:30.385Z,90.80
2023-02-13T16:13:34.419Z,90.60
2023-02-13T16:18:38.690Z,90.80
2023-02-13T16:23:46.178Z,91.10
2023-02-13T16:28:53.578Z,90.80
2023-02-13T16:33:57.670Z,92.00
2023-02-13T16:39:12.804Z,92.60
2023-02-13T16:44:31.264Z,93.00
2023-02-13T16:49:37.502Z,93.90
2023-02-13T16:54:53.493Z,94.10
2023-02-13T17:00:04.206Z,94.80
2023-02-13T17:05:22.667Z,95.20
2023-02-13T17:10:31.190Z,96.20
2023-02-13T17:15:34.988Z,96.20
2023-02-13T17:20:41.567Z,96.30
2023-02-13T17:25:48.093Z,97.00
2023-02-13T17:30:54.159Z,97.30
2023-02-13T17:35:58.224Z,97.80
2023-02-13T17:41:03.598Z,98.20
2023-02-13T17:46:07.468Z,98.50
2023-02-13T17:51:13.822Z,98.70
2023-02-13T17:56:18.940Z,99.00
2023-02-13T18:01:22.831Z,99.70
2023-02-13T18:06:26.823Z,99.90
2023-02-13T18:11:31.971Z,99.90
2023-02-13T18:16:35.634Z,99.90
2023-02-13T18:21:39.426Z,99.90
2023-02-13T18:26:44.494Z,99.90
2023-02-13T18:31:48.500Z,99.90
2023-02-13T18:36:52.527Z,99.90
2023-02-13T18:41:57.549Z,99.90
2023-02-13T18:47:01.581Z,99.90
2023-02-13T18:52:05.504Z,99.90
2023-02-13T18:57:10.591Z,99.90
2023-02-13T19:02:14.411Z,99.90
2023-02-13T19:07:18.176Z,99.90
2023-02-13T19:12:23.274Z,99.90
2023-02-13T19:17:27.013Z,99.90
2023-02-13T19:22:30.784Z,99.90
2023-02-13T19:27:37.732Z,99.90
2023-02-13T19:32:41.532Z,99.90
2023-02-13T19:37:45.204Z,99.90
2023-02-13T19:42:50.322Z,99.90
2023-02-13T19:47:55.209Z,99.90
2023-02-13T19:52:58.922Z,99.90
2023-02-13T19:58:03.938Z,99.90
2023-02-13T20:03:07.702Z,99.90
2023-02-13T20:08:11.685Z,99.90
2023-02-13T20:13:16.802Z,99.90
2023-02-13T20:18:20.827Z,99.90
2023-02-13T20:23:24.501Z,99.90
2023-02-13T20:28:29.655Z,99.90
2023-02-13T20:33:33.319Z,99.90
2023-02-13T20:38:37.255Z,99.90
2023-02-13T20:43:42.750Z,99.90
2023-02-13T20:48:48.193Z,99.90
2023-02-13T20:53:51.945Z,99.90
2023-02-13T20:59:00.596Z,99.90
2023-02-13T21:04:04.578Z,99.90
2023-02-13T21:09:10.635Z,99.90
2023-02-13T21:14:15.909Z,99.90
2023-02-13T21:19:20.294Z,99.90
2023-02-13T21:24:24.723Z,99.90
2023-02-13T21:29:29.794Z,99.90
2023-02-13T21:34:33.525Z,99.90
2023-02-13T21:39:37.505Z,99.90
2023-02-13T21:44:42.756Z,99.90
2023-02-13T21:49:46.430Z,99.90
2023-02-13T21:54:50.186Z,99.90
2023-02-13T21:59:56.311Z,99.90
2023-02-13T22:05:00.148Z,99.90
2023-02-13T22:10:03.844Z,99.90
2023-02-13T22:15:09.729Z,99.90
2023-02-13T22:20:14.088Z,99.90
2023-02-13T22:25:18.259Z,99.90
2023-02-13T22:30:23.605Z,99.90
2023-02-13T22:35:27.373Z,99.90
2023-02-13T22:40:31.067Z,99.90
2023-02-13T22:45:37.040Z,99.90
2023-02-13T22:50:40.777Z,99.90
2023-02-13T22:55:44.622Z,99.90
2023-02-13T23:00:49.843Z,99.90
2023-02-13T23:05:53.586Z,99.90
2023-02-13T23:11:14.667Z,99.90
2023-02-13T23:16:20.023Z,99.90
2023-02-13T23:21:24.155Z,99.90
2023-02-13T23:26:27.858Z,99.90
2023-02-13T23:31:33.447Z,99.90
2023-02-13T23:36:37.216Z,99.90
2023-02-13T23:41:40.961Z,99.90
2023-02-13T23:46:46.297Z,99.90
2023-02-13T23:51:50.264Z,99.90
2023-02-13T23:56:55.906Z,99.90
